Waitakeres Weather Go to January February March April May June
March Summaries Go to July August September October November December
Details 2008 2009 2010 2011 2012 2013 2014 2015 2016 2017
Highest Temperature 23.5C 23.9C 26.3C 25.6C 24.1C 27.4C 25.1C 27.2C 25.4C 24.5C
Lowest Temperature 13.2C 11.5C 6.7C 8.6C 8.8C 11.4C 9.4C 10.7C 10.4C 10.0C
Average Temperature 18.7C 17.8C 17.0C 17.3C 16.2C 17.7C 16.6C 18.0C 18.4C 17.7C
Highest Pressure 1026.0 hPa 1026.0 hPa 1034.8 hPa 1030.6 hPa 1030.3 hPa 1031.6 hPa 1030.1 hPa 1025.8 hPa 1030.5 hPa 1031.8 hPa
Lowest Pressure 1007.0 hPa 1008.0 hPa 1006.6 hPa 1004.2 hPa 995.0 hPa 1000.2 hPa 1001.2 hPa 988.0 hPa 1008.3 hPa 996.1 hPa
Total Rain 47.9 mm 63.2 mm 37.0 mm 176.6 mm 158.0 mm 57.4 mm 49.2 mm 91.8 mm 60.2 mm 176.2 mm
Most Rain in 24 hrs 20.7 mm 24.7 mm 19.6 mm 39.6 mm 31.6 mm 29.2 mm 32.2 mm 18.4 mm 13.0 mm 44.2 mm
Heaviest Rain     217.4 mm/hr 79.4 mm/hr 67.8 mm/hr 103.8 mm/hr 195.2 mm/hr 43.4 mm/hr 103.8 mm/hr 167.0 mm/hr
Number of Rain Days 9 days 11 days 15 days 13 days 18 days 11 days 9 days 18 days 17 days 20 days
Highest Gust     29.0 km/hr 19.3 km/hr 32.2 km/hr 22.5 km/hr 32.2 km/hr 38.6 km/hr 40.2 km/hr 32.2 km/hr
Highest Average Wind     10.3 km/hr 9.7 km/hr 8.2 km/hr 6.4 km/hr 9.7 km/hr 9.7 km/hr 11.3 km/hr 11.3 km/hr
Highest Windrun     75.3 km 108.7 km 97.9 km 69.5 km 149.1 km 94.4 km 162.4 km 140.6 km
Back to Current Weather Go To Rainfall Data
Tabled Data - scroll down 2017 Temperature Pressure Rain Wind
for earlier years Maximum Minimum Average Maximum Minimum Day Total Maximum Rain Rate High Gust Highest Av Run
C C C hPa hPa mm mm/hr time km/h km/h km
01/03/2017 22.9C 15.2C 18.2C 1031.8 hPa 1027.1 hPa 2.4 mm 14.8 mm/hr 14:56 hrs 6.4 km/hr 1.6 km/hr 0.3 km
02/03/2017 23.2C 12.3C 17.5C 1028.3 hPa 1022.9 hPa 0.2 mm 0.0 mm/hr 00:00 hrs 11.3 km/hr 1.6 km/hr 5.5 km
03/03/2017 22.9C 11.6C 16.6C 1023.8 hPa 1019.9 hPa 0.0 mm 0.0 mm/hr 00:00 hrs 14.5 km/hr 1.6 km/hr 8.5 km
04/03/2017 24.3C 13.6C 18.6C 1020.4 hPa 1017.8 hPa 0.2 mm 0.0 mm/hr 00:00 hrs 16.1 km/hr 3.2 km/hr 13.8 km
05/03/2017 22.3C 14.4C 18.0C 1018.8 hPa 1016.8 hPa 1.0 mm 0.0 mm/hr 00:00 hrs 11.3 km/hr 3.2 km/hr 7.5 km
06/03/2017 23.6C 11.6C 17.1C 1017.5 hPa 1013.1 hPa 0.0 mm 0.0 mm/hr 00:00 hrs 12.9 km/hr 3.2 km/hr 7.5 km
07/03/2017 21.9C 13.7C 17.5C 1013.6 hPa 1003.4 hPa 8.0 mm 22.4 mm/hr 13:51 hrs 12.9 km/hr 3.2 km/hr 13.1 km
08/03/2017 20.5C 14.4C 16.7C 1012.4 hPa 1001.7 hPa 24.6 mm 24.0 mm/hr 08:16 hrs 30.6 km/hr 9.7 km/hr 91.4 km
09/03/2017 20.4C 15.4C 18.2C 1015.3 hPa 1012.2 hPa 0.0 mm 0.0 mm/hr 00:00 hrs 32.2 km/hr 11.3 km/hr 140.6 km
10/03/2017 20.9C 17.9C 19.6C 1015.3 hPa 1009.2 hPa 44.2 mm 84.8 mm/hr 14:44 hrs 30.6 km/hr 8.0 km/hr 113.5 km
11/03/2017 22.5C 18.1C 20.1C 1009.5 hPa 1001.8 hPa 24.4 mm 109.8 mm/hr 07:03 hrs 25.7 km/hr 4.8 km/hr 30.0 km
12/03/2017 20.9C 16.9C 19.0C 1008.3 hPa 996.1 hPa 19.8 mm 64.8 mm/hr 11:10 hrs 14.5 km/hr 4.8 km/hr 22.6 km
13/03/2017 21.8C 13.8C 18.2C 1018.4 hPa 1008.3 hPa 0.8 mm 5.8 mm/hr 03:12 hrs 14.5 km/hr 3.2 km/hr 28.7 km
14/03/2017 21.1C 11.9C 15.6C 1019.2 hPa 1016.9 hPa 3.6 mm 28.6 mm/hr 18:43 hrs 12.9 km/hr 3.2 km/hr 5.3 km
15/03/2017 21.7C 10.9C 15.4C 1025.4 hPa 1018.6 hPa 0.2 mm 0.0 mm/hr 00:00 hrs 19.3 km/hr 6.4 km/hr 24.1 km
16/03/2017 23.3C 10.0C 15.9C 1028.1 hPa 1025.0 hPa 0.0 mm 0.0 mm/hr 00:00 hrs 14.5 km/hr 3.2 km/hr 11.2 km
17/03/2017 22.8C 12.2C 17.1C 1028.5 hPa 1025.8 hPa 0.0 mm 0.0 mm/hr 00:00 hrs 12.9 km/hr 3.2 km/hr 10.0 km
18/03/2017 22.6C 13.4C 17.0C 1026.7 hPa 1022.1 hPa 0.0 mm 0.0 mm/hr 00:00 hrs 11.3 km/hr 1.6 km/hr 6.1 km
19/03/2017 24.2C 12.0C 16.9C 1025.4 hPa 1023.2 hPa 0.0 mm 0.0 mm/hr 00:00 hrs 11.3 km/hr 1.6 km/hr 5.1 km
20/03/2017 23.4C 11.0C 16.6C 1024.3 hPa 1018.6 hPa 0.0 mm 0.0 mm/hr 00:00 hrs 17.7 km/hr 3.2 km/hr 10.4 km
21/03/2017 20.8C 15.1C 17.5C 1018.8 hPa 1016.6 hPa 0.0 mm 0.0 mm/hr 00:00 hrs 17.7 km/hr 3.2 km/hr 16.9 km
22/03/2017 23.4C 16.9C 19.1C 1018.2 hPa 1015.2 hPa 0.2 mm 0.0 mm/hr 00:00 hrs 17.7 km/hr 1.6 km/hr 6.8 km
23/03/2017 23.1C 13.4C 18.2C 1019.5 hPa 1015.6 hPa 3.4 mm 13.8 mm/hr 08:46 hrs 8.0 km/hr 1.6 km/hr 0.5 km
24/03/2017 22.4C 12.7C 17.5C 1019.3 hPa 1014.3 hPa 0.0 mm 0.0 mm/hr 00:00 hrs 11.3 km/hr 1.6 km/hr 0.7 km
25/03/2017 22.9C 16.3C 18.6C 1016.1 hPa 1013.7 hPa 0.2 mm 0.0 mm/hr 00:00 hrs 11.3 km/hr 1.6 km/hr 6.2 km
26/03/2017 20.7C 17.2C 18.5C 1015.8 hPa 1010.6 hPa 20.2 mm 118.8 mm/hr 09:05 hrs 22.5 km/hr 8.0 km/hr 51.4 km
27/03/2017 22.1C 16.2C 18.7C 1011.2 hPa 1007.0 hPa 1.0 mm 11.2 mm/hr 13:58 hrs 16.1 km/hr 4.8 km/hr 19.0 km
28/03/2017 24.5C 15.3C 19.1C 1012.6 hPa 1009.1 hPa 7.8 mm 167.0 mm/hr 20:59 hrs 14.5 km/hr 3.2 km/hr 16.5 km
29/03/2017 19.8C 16.9C 17.9C 1016.4 hPa 1011.0 hPa 13.4 mm 8.4 mm/hr 08:20 hrs 12.9 km/hr 1.6 km/hr 8.6 km
30/03/2017 22.7C 14.1C 18.2C 1021.9 hPa 1016.3 hPa 0.6 mm 2.0 mm/hr 11:33 hrs 9.7 km/hr 1.6 km/hr 1.6 km
Back to top 31/03/2017 23.4C 13.4C 17.1C 1022.0 hPa 1019.2 hPa 0.0 mm 0.0 mm/hr 00:00 hrs 6.4 km/hr 1.6 km/hr 0.2 km
Tabled Data - scroll down 2016 Temperature Pressure Rain Wind
for earlier years Maximum Minimum Average Maximum Minimum Day Total Maximum Rain Rate High Gust Highest Av Run
C C C hPa hPa mm mm/hr time km/h km/h km
01/03/2016 21.7C 17.6C 19.1C 1018.1 hPa 1013.4 hPa 4.4 mm 12.2 mm/hr 04:01 hrs 8.0 km/hr 1.6 km/hr 1.4 km
02/03/2016 23.1C 14.0C 18.2C 1026.0 hPa 1017.6 hPa 0.0 mm 0.0 mm/hr 00:00 hrs 22.5 km/hr 4.8 km/hr 13.6 km
03/03/2016 23.4C 13.6C 18.0C 1029.6 hPa 1025.5 hPa 0.0 mm 0.0 mm/hr 00:00 hrs 14.5 km/hr 3.2 km/hr 10.8 km
04/03/2016 25.2C 13.3C 18.2C 1029.5 hPa 1025.0 hPa 0.0 mm 0.0 mm/hr 00:00 hrs 9.7 km/hr 1.6 km/hr 1.8 km
05/03/2016 24.9C 14.2C 18.3C 1027.1 hPa 1023.6 hPa 1.4 mm 41.0 mm/hr 10:05 hrs 9.7 km/hr 1.6 km/hr 0.8 km
06/03/2016 24.5C 13.2C 18.0C 1025.8 hPa 1024.2 hPa 0.2 mm 0.0 mm/hr 00:00 hrs 11.3 km/hr 1.6 km/hr 0.7 km
07/03/2016 25.4C 16.5C 20.2C 1024.8 hPa 1021.7 hPa 0.0 mm 0.0 mm/hr 00:00 hrs 12.9 km/hr 1.6 km/hr 8.8 km
08/03/2016 25.0C 16.4C 20.4C 1023.0 hPa 1020.7 hPa 0.0 mm 0.0 mm/hr 00:00 hrs 17.7 km/hr 3.2 km/hr 13.4 km
09/03/2016 22.8C 12.8C 18.7C 1025.9 hPa 1021.0 hPa 2.2 mm 8.4 mm/hr 04:23 hrs 12.9 km/hr 1.6 km/hr 8.1 km
10/03/2016 23.1C 11.7C 17.5C 1025.8 hPa 1018.9 hPa 0.0 mm 0.0 mm/hr 00:00 hrs 17.7 km/hr 1.6 km/hr 5.9 km
11/03/2016 22.7C 13.9C 18.5C 1024.5 hPa 1017.4 hPa 4.2 mm 16.8 mm/hr 08:56 hrs 11.3 km/hr 1.6 km/hr 2.7 km
12/03/2016 22.1C 11.3C 16.0C 1030.5 hPa 1024.4 hPa 0.0 mm 0.0 mm/hr 00:00 hrs 16.1 km/hr 4.8 km/hr 19.9 km
13/03/2016 23.8C 10.4C 16.0C 1030.4 hPa 1026.7 hPa 0.0 mm 0.0 mm/hr 00:00 hrs 12.9 km/hr 1.6 km/hr 5.4 km
14/03/2016 23.6C 11.6C 16.9C 1027.4 hPa 1021.5 hPa 0.0 mm 0.0 mm/hr 00:00 hrs 9.7 km/hr 1.6 km/hr 0.5 km
15/03/2016 22.6C 13.2C 17.5C 1021.7 hPa 1017.2 hPa 3.2 mm 29.0 mm/hr 15:23 hrs 11.3 km/hr 1.6 km/hr 1.3 km
16/03/2016 25.4C 15.7C 19.9C 1020.0 hPa 1017.1 hPa 6.0 mm 22.4 mm/hr 02:45 hrs 9.7 km/hr 1.6 km/hr 1.4 km
17/03/2016 22.9C 15.9C 18.6C 1020.7 hPa 1018.5 hPa 2.8 mm 24.6 mm/hr 14:30 hrs 12.9 km/hr 3.2 km/hr 9.1 km
18/03/2016 23.4C 15.7C 18.9C 1022.4 hPa 1019.9 hPa 0.2 mm 0.0 mm/hr 00:00 hrs 25.7 km/hr 6.4 km/hr 37.4 km
19/03/2016 23.7C 16.3C 19.1C 1022.7 hPa 1020.9 hPa 1.4 mm 6.2 mm/hr 05:34 hrs 22.5 km/hr 6.4 km/hr 52.2 km
20/03/2016 23.5C 16.7C 19.5C 1023.0 hPa 1021.3 hPa 1.0 mm 8.2 mm/hr 06:11 hrs 24.1 km/hr 6.4 km/hr 52.7 km
21/03/2016 24.6C 16.5C 19.6C 1022.6 hPa 1019.1 hPa 0.0 mm 0.0 mm/hr 00:00 hrs 29.0 km/hr 6.4 km/hr 42.9 km
22/03/2016 24.0C 17.9C 19.8C 1020.7 hPa 1016.5 hPa 7.2 mm 103.8 mm/hr 00:48 hrs 25.7 km/hr 8.0 km/hr 87.1 km
23/03/2016 20.1C 19.3C 19.7C 1017.8 hPa 1010.3 hPa 13.0 mm 4.6 mm/hr 07:26 hrs 38.6 km/hr 9.7 km/hr 162.4 km
24/03/2016 23.4C 17.6C 20.5C 1013.7 hPa 1008.3 hPa 7.2 mm 30.8 mm/hr 07:19 hrs 40.2 km/hr 11.3 km/hr 53.6 km
25/03/2016 23.2C 15.8C 19.1C 1014.7 hPa 1012.1 hPa 4.6 mm 62.6 mm/hr 15:31 hrs 6.4 km/hr 1.6 km/hr 0.2 km
26/03/2016 23.7C 14.5C 18.2C 1014.5 hPa 1012.2 hPa 0.0 mm 0.0 mm/hr 00:00 hrs 9.7 km/hr 1.6 km/hr 1.1 km
27/03/2016 22.3C 13.7C 17.5C 1015.8 hPa 1012.5 hPa 0.4 mm 8.2 mm/hr 06:27 hrs 11.3 km/hr 1.6 km/hr 0.5 km
28/03/2016 22.9C 13.7C 17.4C 1019.2 hPa 1015.4 hPa 0.8 mm 0.0 mm/hr 00:00 hrs 8.0 km/hr 1.6 km/hr 0.7 km
29/03/2016 25.1C 14.1C 17.8C 1021.4 hPa 1018.3 hPa 0.0 mm 0.0 mm/hr 00:00 hrs 9.7 km/hr 1.6 km/hr 0.9 km
30/03/2016 23.9C 12.1C 16.6C 1024.2 hPa 1020.1 hPa 0.0 mm 0.0 mm/hr 00:00 hrs 14.5 km/hr 1.6 km/hr 4.2 km
Back to top 31/03/2016 21.0C 12.6C 16.1C 1025.2 hPa 1022.0 hPa 0.0 mm 0.0 mm/hr 00:00 hrs 19.3 km/hr 4.8 km/hr 17.6 km
Tabled Data - scroll down 2015 Temperature Pressure Rain Wind
for earlier years Maximum Minimum Average Maximum Minimum Day Total Maximum Rain Rate High Gust Highest Av Run
C C C hPa hPa mm mm/hr time km/h km/h km
01/03/2015 27.2C 13.9C 19.7C 1021.2 hPa 1018.3 hPa 0.0 mm 0.0 mm/hr 00:00 hrs 12.9 km/hr 3.2 km/hr 10.4 km
02/03/2015 25.6C 14.9C 19.7C 1020.0 hPa 1015.6 hPa 0.0 mm 0.0 mm/hr 00:00 hrs 17.7 km/hr 4.8 km/hr 20.3 km
03/03/2015 24.6C 15.3C 19.6C 1017.0 hPa 1013.7 hPa 0.0 mm 0.0 mm/hr 00:00 hrs 12.9 km/hr 4.8 km/hr 16.0 km
04/03/2015 25.1C 17.6C 20.5C 1014.8 hPa 1010.4 hPa 0.0 mm 0.0 mm/hr 00:00 hrs 11.3 km/hr 3.2 km/hr 6.5 km
05/03/2015 27.0C 15.8C 20.2C 1010.9 hPa 1005.6 hPa 0.0 mm 0.0 mm/hr 00:00 hrs 12.9 km/hr 3.2 km/hr 12.6 km
06/03/2015 23.9C 15.2C 18.4C 1006.6 hPa 1000.5 hPa 2.0 mm 10.6 mm/hr 14:55 hrs 22.5 km/hr 8.0 km/hr 24.9 km
07/03/2015 23.8C 15.2C 18.3C 1004.1 hPa 1000.1 hPa 3.0 mm 27.2 mm/hr 21:20 hrs 38.6 km/hr 9.7 km/hr 43.5 km
08/03/2015 22.9C 15.3C 18.6C 1013.9 hPa 1003.1 hPa 1.4 mm 4.0 mm/hr 19:13 hrs 24.1 km/hr 4.8 km/hr 46.0 km
09/03/2015 21.8C 13.2C 17.2C 1016.7 hPa 1013.6 hPa 0.0 mm 0.0 mm/hr 00:00 hrs 11.3 km/hr 1.6 km/hr 5.2 km
10/03/2015 24.9C 13.0C 18.1C 1017.8 hPa 1015.7 hPa 0.0 mm 0.0 mm/hr 00:00 hrs 11.3 km/hr 3.2 km/hr 15.3 km
11/03/2015 24.1C 13.1C 18.1C 1018.2 hPa 1015.1 hPa 0.0 mm 0.0 mm/hr 00:00 hrs 9.7 km/hr 1.6 km/hr 3.2 km
12/03/2015 25.2C 15.9C 19.5C 1016.8 hPa 1012.4 hPa 9.4 mm 24.8 mm/hr 22:16 hrs 12.9 km/hr 3.2 km/hr 15.6 km
13/03/2015 25.8C 15.5C 19.5C 1015.3 hPa 1012.1 hPa 0.2 mm 0.0 mm/hr 00:00 hrs 14.5 km/hr 3.2 km/hr 15.5 km
14/03/2015 26.7C 15.4C 19.7C 1016.2 hPa 1013.2 hPa 0.0 mm 0.0 mm/hr 00:00 hrs 19.3 km/hr 4.8 km/hr 19.5 km
15/03/2015 21.3C 16.8C 18.6C 1013.2 hPa 993.0 hPa 9.2 mm 7.2 mm/hr 19:34 hrs 32.2 km/hr 8.0 km/hr 94.4 km
16/03/2015 23.2C 16.2C 18.6C 993.3 hPa 988.0 hPa 15.6 mm 7.6 mm/hr 01:30 hrs 25.7 km/hr 8.0 km/hr 58.1 km
17/03/2015 22.6C 13.3C 17.3C 1003.4 hPa 992.3 hPa 1.8 mm 10.2 mm/hr 13:51 hrs 16.1 km/hr 3.2 km/hr 20.5 km
18/03/2015 21.8C 11.8C 16.0C 1011.1 hPa 1003.3 hPa 1.2 mm 43.4 mm/hr 09:45 hrs 14.5 km/hr 3.2 km/hr 14.0 km
19/03/2015 20.9C 11.8C 15.6C 1019.7 hPa 1010.9 hPa 0.0 mm 0.0 mm/hr 00:00 hrs 11.3 km/hr 1.6 km/hr 5.5 km
20/03/2015 22.6C 10.7C 15.3C 1025.5 hPa 1019.5 hPa 0.0 mm 0.0 mm/hr 00:00 hrs 17.7 km/hr 3.2 km/hr 16.2 km
21/03/2015 22.4C 14.4C 17.2C 1025.8 hPa 1022.7 hPa 0.0 mm 0.0 mm/hr 00:00 hrs 19.3 km/hr 4.8 km/hr 22.3 km
22/03/2015 23.3C 12.3C 17.0C 1023.8 hPa 1019.5 hPa 0.0 mm 0.0 mm/hr 00:00 hrs 16.1 km/hr 3.2 km/hr 16.6 km
23/03/2015 21.7C 11.8C 16.1C 1020.9 hPa 1017.4 hPa 3.0 mm 4.6 mm/hr 21:30 hrs 16.1 km/hr 4.8 km/hr 17.9 km
24/03/2015 19.9C 13.8C 16.1C 1019.9 hPa 1017.5 hPa 12.0 mm 24.8 mm/hr 05:06 hrs 11.3 km/hr 3.2 km/hr 7.2 km
25/03/2015 23.4C 12.3C 17.0C 1021.4 hPa 1019.0 hPa 0.6 mm 2.2 mm/hr 18:28 hrs 11.3 km/hr 3.2 km/hr 5.2 km
26/03/2015 22.7C 13.4C 17.6C 1020.6 hPa 1015.2 hPa 18.4 mm 16.8 mm/hr 20:20 hrs 16.1 km/hr 3.2 km/hr 7.9 km
27/03/2015 22.3C 15.2C 17.8C 1016.2 hPa 1014.2 hPa 1.4 mm 13.0 mm/hr 15:09 hrs 8.0 km/hr 1.6 km/hr 0.5 km
28/03/2015 24.0C 16.3C 18.8C 1016.2 hPa 1013.8 hPa 2.8 mm 18.0 mm/hr 10:41 hrs 9.7 km/hr 3.2 km/hr 2.3 km
29/03/2015 22.7C 15.7C 18.5C 1014.5 hPa 1012.1 hPa 9.0 mm 27.0 mm/hr 08:08 hrs 12.9 km/hr 3.2 km/hr 11.9 km
30/03/2015 22.3C 13.2C 17.6C 1019.3 hPa 1013.4 hPa 0.6 mm 5.4 mm/hr 04:11 hrs 17.7 km/hr 3.2 km/hr 28.9 km
Back to top 31/03/2015 22.0C 11.6C 16.2C 1023.9 hPa 1018.9 hPa 0.2 mm 0.0 mm/hr 00:00 hrs 12.9 km/hr 3.2 km/hr 13.4 km
Tabled Data - scroll down 2014 Temperature Pressure Rain Wind
for earlier years Maximum Minimum Average Maximum Minimum Day Total Maximum Rain Rate High Gust Highest Av Run
C C C hPa hPa mm mm/hr time km/h km/h km
01/03/2014 19.7C 11.1C 15.2C 1014.8 hPa 1012.8 hPa 0.0 mm 0.0 mm/hr 00:00 hrs 12.9 km/hr 3.2 km/hr 24.8 km
02/03/2014 21.0C 10.4C 15.3C 1014.5 hPa 1012.2 hPa 0.0 mm 0.0 mm/hr 00:00 hrs 14.5 km/hr 3.2 km/hr 13.2 km
03/03/2014 21.3C 12.7C 16.0C 1013.5 hPa 1008.9 hPa 0.2 mm 0.0 mm/hr 00:00 hrs 19.3 km/hr 4.8 km/hr 33.6 km
04/03/2014 20.2C 10.3C 15.0C 1012.0 hPa 1008.1 hPa 1.6 mm 12.4 mm/hr 11:23 hrs 19.3 km/hr 4.8 km/hr 32.0 km
05/03/2014 20.5C 13.1C 15.7C 1012.6 hPa 1006.5 hPa 2.4 mm 33.8 mm/hr 12:09 hrs 17.7 km/hr 4.8 km/hr 36.0 km
06/03/2014 22.6C 9.4C 15.5C 1021.0 hPa 1012.1 hPa 0.0 mm 0.0 mm/hr 00:00 hrs 12.9 km/hr 3.2 km/hr 12.6 km
07/03/2014 22.6C 10.9C 15.8C 1022.9 hPa 1020.8 hPa 0.0 mm 0.0 mm/hr 00:00 hrs 12.9 km/hr 3.2 km/hr 11.8 km
08/03/2014 23.1C 10.3C 15.6C 1022.9 hPa 1019.9 hPa 0.0 mm 0.0 mm/hr 00:00 hrs 17.7 km/hr 3.2 km/hr 14.7 km
09/03/2014 22.4C 11.6C 16.4C 1023.4 hPa 1019.8 hPa 0.0 mm 0.0 mm/hr 00:00 hrs 11.3 km/hr 3.2 km/hr 12.6 km
10/03/2014 24.3C 12.6C 17.6C 1026.9 hPa 1023.3 hPa 0.0 mm 0.0 mm/hr 00:00 hrs 9.7 km/hr 3.2 km/hr 9.5 km
11/03/2014 24.0C 12.7C 17.4C 1027.0 hPa 1023.3 hPa 0.0 mm 0.0 mm/hr 00:00 hrs 0.0 km/hr 0.0 km/hr 0.0 km
12/03/2014 24.1C 12.9C 17.5C 1025.6 hPa 1021.6 hPa 0.0 mm 0.0 mm/hr 00:00 hrs 0.0 km/hr 0.0 km/hr 0.0 km
13/03/2014 24.7C 12.6C 17.4C 1024.5 hPa 1021.7 hPa 0.0 mm 0.0 mm/hr 00:00 hrs 11.3 km/hr 3.2 km/hr 9.0 km
14/03/2014 21.9C 13.5C 17.4C 1023.8 hPa 1015.9 hPa 0.0 mm 0.0 mm/hr 00:00 hrs 19.3 km/hr 4.8 km/hr 31.5 km
15/03/2014 19.9C 17.2C 18.7C 1016.1 hPa 1001.2 hPa 32.2 mm 27.4 mm/hr 08:02 hrs 32.2 km/hr 9.7 km/hr 149.1 km
16/03/2014 21.4C 16.1C 18.8C 1016.0 hPa 1002.1 hPa 4.6 mm 64.4 mm/hr 23:05 hrs 30.6 km/hr 8.0 km/hr 64.3 km
17/03/2014 22.7C 14.7C 17.9C 1021.4 hPa 1015.9 hPa 0.0 mm 0.0 mm/hr 00:00 hrs 11.3 km/hr 1.6 km/hr 10.9 km
18/03/2014 23.4C 14.2C 18.2C 1024.2 hPa 1020.8 hPa 0.0 mm 0.0 mm/hr 00:00 hrs 9.7 km/hr 1.6 km/hr 3.9 km
19/03/2014 22.9C 11.8C 17.3C 1024.6 hPa 1022.3 hPa 0.0 mm 0.0 mm/hr 00:00 hrs 8.0 km/hr 3.2 km/hr 11.4 km
20/03/2014 21.3C 10.5C 15.6C 1024.6 hPa 1022.3 hPa 0.0 mm 0.0 mm/hr 00:00 hrs 11.3 km/hr 3.2 km/hr 12.7 km
21/03/2014 25.1C 12.8C 17.6C 1024.2 hPa 1021.8 hPa 0.8 mm 6.2 mm/hr 18:18 hrs 19.3 km/hr 4.8 km/hr 20.4 km
22/03/2014 23.8C 12.0C 17.1C 1024.1 hPa 1019.8 hPa 0.0 mm 0.0 mm/hr 00:00 hrs 12.9 km/hr 3.2 km/hr 13.0 km
23/03/2014 24.1C 11.9C 17.3C 1022.2 hPa 1020.3 hPa 0.0 mm 0.0 mm/hr 00:00 hrs 11.3 km/hr 3.2 km/hr 12.3 km
24/03/2014 23.1C 13.4C 16.6C 1022.5 hPa 1020.1 hPa 4.4 mm 50.0 mm/hr 13:53 hrs 9.7 km/hr 3.2 km/hr 3.2 km
25/03/2014 21.0C 12.4C 16.3C 1021.2 hPa 1018.8 hPa 0.2 mm 0.0 mm/hr 00:00 hrs 16.1 km/hr 3.2 km/hr 17.3 km
26/03/2014 19.9C 13.3C 15.9C 1021.2 hPa 1017.0 hPa 2.8 mm 195.2 mm/hr 01:59 hrs 20.9 km/hr 4.8 km/hr 36.0 km
27/03/2014 20.8C 12.2C 16.0C 1025.4 hPa 1020.7 hPa 0.0 mm 0.0 mm/hr 00:00 hrs 14.5 km/hr 3.2 km/hr 26.2 km
28/03/2014 23.0C 11.1C 15.4C 1028.1 hPa 1025.3 hPa 0.0 mm 0.0 mm/hr 00:00 hrs 8.0 km/hr 1.6 km/hr 9.6 km
29/03/2014 22.4C 11.4C 15.8C 1029.7 hPa 1027.7 hPa 0.0 mm 0.0 mm/hr 00:00 hrs 9.7 km/hr 1.6 km/hr 6.1 km
30/03/2014 23.5C 11.2C 16.0C 1030.1 hPa 1027.0 hPa 0.0 mm 0.0 mm/hr 00:00 hrs 8.0 km/hr 1.6 km/hr 0.9 km
Back to top 31/03/2014 24.4C 12.0C 16.4C 1029.1 hPa 1024.7 hPa 0.0 mm 0.0 mm/hr 00:00 hrs 8.0 km/hr 1.6 km/hr 2.2 km
Tabled Data - scroll down 2013 Temperature Pressure Rain Wind
for earlier years Maximum Minimum Average Maximum Minimum Day Total Maximum Rain Rate High Gust Highest Av Run
C C C hPa hPa mm mm/hr time km/h km/h km
01/03/2013 23.8C 15.6C 18.4C 1012.1 hPa 1009.9 hPa 0.0 mm 0.0 mm/hr 00:00 hrs 17.7 km/hr 4.8 km/hr 40.8 km
02/03/2013 24.1C 13.6C 17.8C 1012.2 hPa 1009.7 hPa 0.0 mm 0.0 mm/hr 00:00 hrs 12.9 km/hr 3.2 km/hr 23.3 km
03/03/2013 24.3C 14.2C 18.3C 1010.5 hPa 1007.5 hPa 3.0 mm 18.6 mm/hr 08:51 hrs 11.3 km/hr 3.2 km/hr 16.6 km
04/03/2013 22.4C 14.9C 18.0C 1012.3 hPa 1009.8 hPa 0.0 mm 0.0 mm/hr 00:00 hrs 17.7 km/hr 4.8 km/hr 34.5 km
05/03/2013 23.6C 13.6C 17.2C 1018.3 hPa 1010.4 hPa 0.8 mm 0.8 mm/hr 00:39 hrs 14.5 km/hr 4.8 km/hr 30.5 km
06/03/2013 23.9C 12.8C 17.8C 1018.6 hPa 1015.2 hPa 0.0 mm 0.0 mm/hr 00:00 hrs 12.9 km/hr 3.2 km/hr 22.4 km
07/03/2013 25.7C 13.9C 19.0C 1020.0 hPa 1015.1 hPa 0.0 mm 0.0 mm/hr 00:00 hrs 17.7 km/hr 4.8 km/hr 22.5 km
08/03/2013 24.9C 14.1C 18.5C 1020.1 hPa 1015.8 hPa 0.0 mm 0.0 mm/hr 00:00 hrs 12.9 km/hr 3.2 km/hr 24.3 km
09/03/2013 25.9C 12.9C 18.4C 1019.4 hPa 1015.3 hPa 0.0 mm 0.0 mm/hr 00:00 hrs 12.9 km/hr 4.8 km/hr 24.6 km
10/03/2013 26.2C 12.1C 18.4C 1020.0 hPa 1016.6 hPa 0.0 mm 0.0 mm/hr 00:00 hrs 17.7 km/hr 4.8 km/hr 26.3 km
11/03/2013 27.4C 13.3C 19.2C 1018.3 hPa 1014.9 hPa 0.0 mm 0.0 mm/hr 00:00 hrs 14.5 km/hr 4.8 km/hr 17.8 km
12/03/2013 26.3C 13.6C 19.1C 1018.4 hPa 1015.0 hPa 0.0 mm 0.0 mm/hr 00:00 hrs 12.9 km/hr 3.2 km/hr 19.1 km
13/03/2013 25.1C 13.5C 18.1C 1016.7 hPa 1013.2 hPa 0.0 mm 0.0 mm/hr 00:00 hrs 12.9 km/hr 3.2 km/hr 13.8 km
14/03/2013 23.7C 12.9C 17.6C 1018.3 hPa 1015.1 hPa 0.0 mm 0.0 mm/hr 00:00 hrs 8.0 km/hr 3.2 km/hr 5.3 km
15/03/2013 24.7C 12.6C 17.9C 1019.5 hPa 1017.1 hPa 0.0 mm 0.0 mm/hr 00:00 hrs 12.9 km/hr 4.8 km/hr 25.7 km
16/03/2013 21.0C 12.6C 17.4C 1019.2 hPa 1012.3 hPa 0.8 mm 0.8 mm/hr 12:52 hrs 16.1 km/hr 4.8 km/hr 39.3 km
17/03/2013 22.3C 18.1C 19.6C 1012.7 hPa 1000.2 hPa 29.2 mm 52.6 mm/hr 09:59 hrs 17.7 km/hr 4.8 km/hr 36.2 km
18/03/2013 22.4C 18.2C 19.9C 1003.5 hPa 1000.3 hPa 4.8 mm 8.6 mm/hr 23:31 hrs 20.9 km/hr 6.4 km/hr 69.5 km
19/03/2013 20.7C 13.4C 17.1C 1014.5 hPa 1001.3 hPa 9.2 mm 103.8 mm/hr 01:24 hrs 22.5 km/hr 4.8 km/hr 65.7 km
20/03/2013 22.7C 11.9C 16.1C 1025.1 hPa 1014.4 hPa 1.0 mm 11.2 mm/hr 08:52 hrs 16.1 km/hr 4.8 km/hr 20.4 km
21/03/2013 22.8C 11.6C 16.1C 1030.3 hPa 1025.0 hPa 0.0 mm 0.0 mm/hr 00:00 hrs 11.3 km/hr 3.2 km/hr 16.1 km
22/03/2013 22.6C 11.6C 16.1C 1031.6 hPa 1028.9 hPa 0.0 mm 0.0 mm/hr 00:00 hrs 16.1 km/hr 4.8 km/hr 21.0 km
23/03/2013 20.9C 11.9C 16.2C 1030.7 hPa 1027.0 hPa 0.0 mm 0.0 mm/hr 00:00 hrs 8.0 km/hr 1.6 km/hr 6.6 km
24/03/2013 23.1C 11.4C 16.0C 1029.0 hPa 1024.9 hPa 0.0 mm 0.0 mm/hr 00:00 hrs 17.7 km/hr 4.8 km/hr 26.1 km
25/03/2013 23.5C 12.7C 16.6C 1025.9 hPa 1021.5 hPa 3.2 mm 25.4 mm/hr 01:51 hrs 12.9 km/hr 3.2 km/hr 17.7 km
26/03/2013 23.7C 12.6C 16.7C 1025.7 hPa 1023.3 hPa 0.0 mm 0.0 mm/hr 00:00 hrs 9.7 km/hr 3.2 km/hr 13.0 km
27/03/2013 23.6C 13.2C 17.0C 1027.4 hPa 1024.8 hPa 0.2 mm 0.0 mm/hr 00:00 hrs 9.7 km/hr 3.2 km/hr 8.0 km
28/03/2013 23.6C 13.4C 17.4C 1027.7 hPa 1023.4 hPa 0.0 mm 0.0 mm/hr 00:00 hrs 11.3 km/hr 3.2 km/hr 4.9 km
29/03/2013 22.8C 11.9C 16.4C 1024.8 hPa 1017.4 hPa 0.0 mm 0.0 mm/hr 00:00 hrs 16.1 km/hr 4.8 km/hr 15.0 km
30/03/2013 21.1C 14.4C 17.3C 1017.8 hPa 1013.8 hPa 0.4 mm 0.0 mm/hr 00:00 hrs 12.9 km/hr 3.2 km/hr 20.0 km
Back to top 31/03/2012 24.8C 15.2C 18.6C 1015.6 hPa 1012.4 hPa 4.8 mm 60.4 mm/hr 16:08 hrs 9.7 km/hr 3.2 km/hr 8.7 km
Tabled Data - scroll down 2012 Temperature Pressure Rain Wind
for earlier years Maximum Minimum Average Maximum Minimum Day Total Maximum Rain Rate High Gust Highest Av Run
C C C hPa hPa mm mm/hr time km/h km/h km
01/03/2012 20.3C 14.2C 16.9C 1008.5 hPa 1000.3 hPa 18.4 mm 67.8 mm/hr 05:18 hrs 20.9 km/hr 6.1 km/hr 84.0 km
02/03/2012 18.9C 13.1C 15.8C 1009.7 hPa 996.6 hPa 3.4 mm 5.0 mm/hr 23:53 hrs 16.1 km/hr 3.6 km/hr 26.7 km
03/03/2012 18.3C 11.2C 15.1C 1007.9 hPa 995.0 hPa 9.2 mm 58.4 mm/hr 13:33 hrs 32.2 km/hr 8.2 km/hr 97.9 km
04/03/2012 21.3C 8.8C 14.2C 1020.2 hPa 1007.9 hPa 0.0 mm 0.0 mm/hr 00:00 hrs 11.3 km/hr 3.7 km/hr 18.9 km
05/03/2012 22.4C 9.8C 14.7C 1024.4 hPa 1020.1 hPa 0.0 mm 0.0 mm/hr 00:00 hrs 9.7 km/hr 3.1 km/hr 12.4 km
06/03/2012 20.5C 11.1C 15.1C 1024.1 hPa 1019.4 hPa 0.8 mm 6.0 mm/hr 09:38 hrs 12.9 km/hr 3.5 km/hr 14.0 km
07/03/2012 22.3C 11.9C 16.8C 1021.0 hPa 1016.9 hPa 18.8 mm 44.2 mm/hr 22:10 hrs 11.3 km/hr 3.4 km/hr 16.5 km
08/03/2012 19.7C 13.3C 16.8C 1024.8 hPa 1019.1 hPa 0.8 mm 3.4 mm/hr 00:37 hrs 16.1 km/hr 4.0 km/hr 33.4 km
09/03/2012 23.4C 11.6C 16.2C 1024.8 hPa 1018.9 hPa 0.0 mm 0.0 mm/hr 00:00 hrs 12.9 km/hr 3.7 km/hr 18.3 km
10/03/2012 20.4C 12.1C 16.2C 1019.3 hPa 1011.0 hPa 0.0 mm 0.0 mm/hr 00:00 hrs 17.7 km/hr 3.0 km/hr 18.8 km
11/03/2012 19.9C 16.9C 18.3C 1011.0 hPa 1003.9 hPa 15.0 mm 41.8 mm/hr 17:07 hrs 12.9 km/hr 3.6 km/hr 30.8 km
12/03/2012 18.2C 14.7C 15.9C 1013.0 hPa 1003.2 hPa 9.6 mm 33.4 mm/hr 07:04 hrs 22.5 km/hr 5.2 km/hr 51.0 km
13/03/2012 21.6C 14.8C 17.5C 1026.6 hPa 1012.9 hPa 0.0 mm 0.0 mm/hr 00:00 hrs 16.1 km/hr 3.6 km/hr 40.8 km
14/03/2012 22.3C 11.9C 16.5C 1030.3 hPa 1026.5 hPa 0.0 mm 0.0 mm/hr 00:00 hrs 11.3 km/hr 3.8 km/hr 25.1 km
15/03/2012 21.7C 11.8C 16.1C 1028.4 hPa 1023.4 hPa 0.0 mm 0.0 mm/hr 00:00 hrs 19.3 km/hr 3.3 km/hr 15.0 km
16/03/2012 22.0C 10.4C 14.9C 1027.2 hPa 1024.0 hPa 0.2 mm 0.0 mm/hr 00:00 hrs 11.3 km/hr 1.8 km/hr 2.5 km
17/03/2012 20.9C 14.3C 17.0C 1028.1 hPa 1025.2 hPa 0.2 mm 0.0 mm/hr 00:00 hrs 19.3 km/hr 5.1 km/hr 54.3 km
18/03/2012 20.3C 15.1C 17.4C 1025.5 hPa 1016.6 hPa 0.2 mm 0.0 mm/hr 00:00 hrs 22.5 km/hr 6.2 km/hr 58.5 km
19/03/2012 17.8C 13.3C 15.2C 1016.6 hPa 1003.1 hPa 31.6 mm 8.8 mm/hr 23:30 hrs 20.9 km/hr 6.5 km/hr 68.2 km
20/03/2012 22.1C 13.6C 17.2C 1005.4 hPa 1000.8 hPa 10.4 mm 18.6 mm/hr 02:21 hrs 19.3 km/hr 4.9 km/hr 62.0 km
21/03/2012 19.1C 15.7C 17.4C 1008.9 hPa 1000.9 hPa 22.2 mm 14.4 mm/hr 20:09 hrs 17.7 km/hr 4.3 km/hr 47.0 km
22/03/2012 23.9C 12.9C 17.9C 1011.5 hPa 1004.4 hPa 0.6 mm 0.8 mm/hr 00:15 hrs 17.7 km/hr 6.0 km/hr 33.2 km
23/03/2012 21.6C 14.7C 18.0C 1014.1 hPa 1010.9 hPa 0.4 mm 0.0 mm/hr 00:00 hrs 12.9 km/hr 3.6 km/hr 22.5 km
24/03/2012 24.1C 14.5C 18.3C 1013.5 hPa 1004.1 hPa 6.4 mm 20.4 mm/hr 17:34 hrs 20.9 km/hr 5.9 km/hr 27.8 km
25/03/2012 21.1C 12.5C 17.0C 1012.4 hPa 1002.1 hPa 9.8 mm 15.0 mm/hr 06:39 hrs 17.7 km/hr 4.5 km/hr 42.5 km
26/03/2012 19.7C 10.4C 14.6C 1022.9 hPa 1012.4 hPa 0.0 mm 0.0 mm/hr 00:00 hrs 20.9 km/hr 4.2 km/hr 36.0 km
27/03/2012 20.6C 10.1C 14.0C 1025.2 hPa 1022.7 hPa 0.0 mm 0.0 mm/hr 00:00 hrs 9.7 km/hr 3.1 km/hr 9.8 km
28/03/2012 20.8C 10.7C 14.8C 1024.7 hPa 1021.3 hPa 0.0 mm 0.0 mm/hr 00:00 hrs 12.9 km/hr 3.3 km/hr 18.3 km
29/03/2012 23.1C 11.4C 15.9C 1026.1 hPa 1023.4 hPa 0.0 mm 0.0 mm/hr 00:00 hrs 17.7 km/hr 4.2 km/hr 19.5 km
30/03/2012 21.9C 9.7C 15.0C 1025.7 hPa 1023.2 hPa 0.0 mm 0.0 mm/hr 00:00 hrs 14.5 km/hr 4.0 km/hr 19.3 km
Back to top 31/03/2012 21.7C 11.7C 16.0C 1024.2 hPa 1020.7 hPa 0.0 mm 0.0 mm/hr 00:00 hrs 17.7 km/hr 5.0 km/hr 37.1 km
2011 Temperature Pressure Rain Wind
Maximum Minimum Average Maximum Minimum Day Total Maximum Rain Rate High Gust Highest Av Run
C C C hPa hPa mm mm/hr time km/h km/h km
01/03/2011 24.8C 14.6C 18.9C 1017.9 hPa 1014.8 hPa 0.0 mm 0.0 mm/hr 00:00 hrs 12.9 km/hr 4.7 km/hr 26.2 km
02/03/2011 22.7C 14.4C 17.9C 1017.3 hPa 1013.8 hPa 9.2 mm 19.2 mm/hr 19:23 hrs 17.7 km/hr 5.7 km/hr 26.0 km
03/03/2011 23.8C 14.5C 19.1C 1019.9 hPa 1016.6 hPa 0.2 mm 0.0 mm/hr 00:00 hrs 8.0 km/hr 3.4 km/hr 9.3 km
04/03/2011 24.4C 17.4C 20.3C 1017.1 hPa 1014.6 hPa 7.2 mm 16.6 mm/hr 18:19 hrs 19.3 km/hr 7.0 km/hr 19.0 km
05/03/2011 21.4C 17.8C 19.2C 1015.0 hPa 1007.6 hPa 22.2 mm 24.2 mm/hr 06:06 hrs 11.3 km/hr 3.7 km/hr 17.3 km
06/03/2011 19.4C 10.7C 15.1C 1014.7 hPa 1005.9 hPa 9.8 mm 40.0 mm/hr 01:21 hrs 16.1 km/hr 6.8 km/hr 50.8 km
07/03/2011 21.5C 8.6C 14.1C 1019.3 hPa 1014.3 hPa 0.0 mm 0.0 mm/hr 00:00 hrs 8.0 km/hr 1.8 km/hr 6.6 km
08/03/2011 21.4C 9.1C 14.5C 1021.2 hPa 1018.5 hPa 0.0 mm 0.0 mm/hr 00:00 hrs 8.0 km/hr 3.0 km/hr 10.6 km
09/03/2011 22.3C 10.4C 15.5C 1021.3 hPa 1018.4 hPa 0.0 mm 0.0 mm/hr 00:00 hrs 9.7 km/hr 2.8 km/hr 9.1 km
10/03/2011 22.2C 11.3C 15.5C 1021.3 hPa 1018.5 hPa 0.0 mm 0.0 mm/hr 00:00 hrs 11.3 km/hr 3.1 km/hr 12.2 km
11/03/2011 23.0C 11.6C 16.0C 1025.9 hPa 1021.1 hPa 0.0 mm 0.0 mm/hr 00:00 hrs 11.3 km/hr 3.2 km/hr 15.2 km
12/03/2011 23.9C 12.2C 16.6C 1028.9 hPa 1025.6 hPa 0.0 mm 0.0 mm/hr 00:00 hrs 14.5 km/hr 2.8 km/hr 10.5 km
13/03/2011 24.9C 13.6C 18.0C 1030.6 hPa 1028.6 hPa 0.0 mm 0.0 mm/hr 00:00 hrs 11.3 km/hr 4.1 km/hr 20.8 km
14/03/2011 24.7C 14.2C 18.1C 1029.9 hPa 1025.2 hPa 0.0 mm 0.0 mm/hr 00:00 hrs 11.3 km/hr 3.7 km/hr 14.5 km
15/03/2011 25.6C 13.6C 18.1C 1026.1 hPa 1022.1 hPa 0.0 mm 0.0 mm/hr 00:00 hrs 9.7 km/hr 3.4 km/hr 10.3 km
16/03/2011 24.4C 14.5C 18.2C 1023.7 hPa 1020.3 hPa 0.0 mm 0.0 mm/hr 00:00 hrs 11.3 km/hr 4.3 km/hr 19.7 km
17/03/2011 25.2C 14.8C 18.8C 1020.7 hPa 1015.1 hPa 0.0 mm 0.0 mm/hr 00:00 hrs 9.7 km/hr 2.9 km/hr 8.9 km
18/03/2011 22.8C 15.8C 17.8C 1015.9 hPa 1012.1 hPa 19.6 mm 79.4 mm/hr 16:19 hrs 9.7 km/hr 3.0 km/hr 14.0 km
19/03/2011 22.3C 12.1C 16.4C 1020.7 hPa 1014.6 hPa 0.2 mm 0.0 mm/hr 00:00 hrs 8.0 km/hr 2.7 km/hr 8.1 km
20/03/2011 24.4C 12.1C 16.8C 1022.9 hPa 1020.6 hPa 0.0 mm 0.0 mm/hr 00:00 hrs 8.0 km/hr 2.9 km/hr 3.5 km
21/03/2011 18.9C 16.9C 17.8C 1021.5 hPa 1010.5 hPa 16.0 mm 15.6 mm/hr 23:17 hrs 12.9 km/hr 4.7 km/hr 39.7 km
22/03/2011 23.8C 17.1C 19.1C 1010.6 hPa 1004.2 hPa 29.2 mm 30.4 mm/hr 02:30 hrs 11.3 km/hr 5.1 km/hr 22.8 km
23/03/2011 24.6C 15.8C 19.1C 1018.8 hPa 1009.1 hPa 0.0 mm 0.0 mm/hr 00:00 hrs 12.9 km/hr 4.4 km/hr 36.2 km
24/03/2011 22.4C 14.9C 17.9C 1019.8 hPa 1016.8 hPa 0.0 mm 0.0 mm/hr 00:00 hrs 19.3 km/hr 6.2 km/hr 95.5 km
25/03/2011 18.5C 15.6C 17.1C 1017.7 hPa 1013.6 hPa 20.2 mm 25.8 mm/hr 15:57 hrs 17.7 km/hr 6.1 km/hr 108.7 km
26/03/2011 20.9C 17.3C 19.4C 1014.7 hPa 1010.6 hPa 39.6 mm 58.2 mm/hr 15:54 hrs 12.9 km/hr 5.8 km/hr 45.5 km
27/03/2011 20.6C 17.7C 19.7C 1012.0 hPa 1007.5 hPa 3.0 mm 27.2 mm/hr 12:55 hrs 12.9 km/hr 3.2 km/hr 22.6 km
28/03/2011 21.1C 12.9C 16.2C 1019.2 hPa 1009.4 hPa 0.2 mm 0.0 mm/hr 00:00 hrs 11.3 km/hr 4.4 km/hr 36.7 km
29/03/2011 21.9C 12.2C 15.6C 1020.3 hPa 1016.8 hPa 0.0 mm 0.0 mm/hr 00:00 hrs 12.9 km/hr 8.0 km/hr 14.4 km
30/03/2011 23.2C 11.1C 15.7C 1020.7 hPa 1017.8 hPa 0.0 mm 0.0 mm/hr 00:00 hrs 9.7 km/hr 9.7 km/hr 10.5 km
Back to top 31/03/2011 21.7C 10.4C 15.2C 1018.7 hPa 1014.1 hPa 0.0 mm 0.0 mm/hr 00:00 hrs 14.5 km/hr 3.8 km/hr 13.1 km
2010 Temperature Pressure Rain Wind
Maximum Minimum Average Maximum Minimum Day Total Maximum Rain Rate High Gust Highest Av Run
C C C hPa hPa mm mm/hr time km/h km/h km
01/03/2010 25.6C 14.5C 19.6C 1021.1 hPa 1013.5 hPa 1.2 mm 79.0 mm/hr 22:10 hrs 14.5 km/hr 4.5 km/hr 27.7 km
02/03/2010 24.0C 14.9C 18.6C 1014.2 hPa 1007.8 hPa 1.2 mm 1.8 mm/hr 20:50 hrs 11.3 km/hr 4.0 km/hr 8.4 km
03/03/2010 21.2C 14.5C 17.3C 1010.4 hPa 1006.6 hPa 0.6 mm 0.0 mm/hr 00:00 hrs 12.9 km/hr 5.1 km/hr 20.0 km
04/03/2010 21.7C 13.7C 17.1C 1012.3 hPa 1009.9 hPa 0.4 mm 0.0 mm/hr 00:00 hrs 20.9 km/hr 7.1 km/hr 51.6 km
05/03/2010 24.1C 13.6C 17.7C 1012.7 hPa 1009.5 hPa 0.0 mm 0.0 mm/hr 00:00 hrs 11.3 km/hr 4.1 km/hr 23.9 km
06/03/2010 26.3C 14.5C 18.5C 1017.8 hPa 1011.1 hPa 0.4 mm 2.6 mm/hr 09:35 hrs 9.7 km/hr 2.3 km/hr 7.8 km
07/03/2010 24.3C 11.7C 16.7C 1018.3 hPa 1014.5 hPa 0.0 mm 0.0 mm/hr 00:00 hrs 8.0 km/hr 2.8 km/hr 12.1 km
08/03/2010 23.4C 11.4C 16.3C 1018.0 hPa 1014.9 hPa 0.0 mm 0.0 mm/hr 00:00 hrs 11.3 km/hr 3.5 km/hr 10.7 km
09/03/2010 24.9C 12.7C 17.6C 1018.3 hPa 1016.5 hPa 0.0 mm 0.0 mm/hr 00:00 hrs 9.7 km/hr 4.0 km/hr 8.9 km
10/03/2010 22.8C 13.3C 17.2C 1018.3 hPa 1014.5 hPa 0.0 mm 0.0 mm/hr 00:00 hrs 16.1 km/hr 4.3 km/hr 25.3 km
11/03/2010 22.0C 13.8C 17.7C 1016.1 hPa 1013.4 hPa 1.8 mm 16.8 mm/hr 17:31 hrs 16.1 km/hr 5.6 km/hr 41.1 km
12/03/2010 20.6C 13.1C 16.3C 1018.3 hPa 1014.7 hPa 1.4 mm 111.8 mm/hr 07:08 hrs 19.3 km/hr 7.6 km/hr 74.5 km
13/03/2010 20.2C 9.3C 15.1C 1021.7 hPa 1018.0 hPa 0.0 mm 0.0 mm/hr 00:00 hrs 17.7 km/hr 6.6 km/hr 54.1 km
14/03/2010 22.6C 14.2C 16.8C 1020.9 hPa 1018.8 hPa 2.0 mm 11.0 mm/hr 06:59 hrs 11.3 km/hr 5.4 km/hr 46.1 km
15/03/2010 21.2C 15.4C 17.6C 1020.2 hPa 1015.8 hPa 0.0 mm 0.0 mm/hr 00:00 hrs 19.3 km/hr 6.0 km/hr 51.4 km
16/03/2010 19.8C 14.2C 16.2C 1017.4 hPa 1013.4 hPa 0.0 mm 0.0 mm/hr 00:00 hrs 16.1 km/hr 5.1 km/hr 24.8 km
17/03/2010 20.9C 12.5C 16.2C 1019.2 hPa 1012.6 hPa 0.0 mm 0.0 mm/hr 00:00 hrs 16.1 km/hr 6.5 km/hr 39.6 km
18/03/2010 19.3C 6.7C 12.8C 1024.2 hPa 1019.2 hPa 0.0 mm 0.0 mm/hr 00:00 hrs 12.9 km/hr 5.0 km/hr 26.4 km
19/03/2010 19.5C 12.8C 16.2C 1025.6 hPa 1022.7 hPa 0.0 mm 0.0 mm/hr 00:00 hrs 11.3 km/hr 5.1 km/hr 43.4 km
20/03/2010 21.9C 14.4C 17.7C 1025.8 hPa 1023.6 hPa 0.0 mm 0.0 mm/hr 00:00 hrs 11.3 km/hr 5.6 km/hr 31.9 km
21/03/2010 20.8C 14.2C 17.6C 1025.0 hPa 1021.3 hPa 0.2 mm 0.0 mm/hr 00:00 hrs 9.7 km/hr 3.3 km/hr 24.2 km
22/03/2010 21.0C 15.7C 17.5C 1021.4 hPa 1017.7 hPa 0.0 mm 0.0 mm/hr 00:00 hrs 24.1 km/hr 6.9 km/hr 42.9 km
23/03/2010 20.8C 13.9C 16.9C 1019.3 hPa 1015.2 hPa 3.2 mm 3.2 mm/hr 14:07 hrs 25.7 km/hr 6.9 km/hr 34.7 km
24/03/2010 21.1C 13.7C 17.5C 1016.3 hPa 1009.1 hPa 19.6 mm 217.4 mm/hr 20:31 hrs 29.0 km/hr 10.3 km/hr 75.3 km
25/03/2010 19.4C 13.2C 15.8C 1018.2 hPa 1009.9 hPa 3.8 mm 46.8 mm/hr 00:37 hrs 19.3 km/hr 6.0 km/hr 58.2 km
26/03/2010 21.3C 14.2C 17.2C 1021.4 hPa 1017.7 hPa 0.8 mm 0.0 mm/hr 00:00 hrs 16.1 km/hr 6.7 km/hr 57.9 km
27/03/2010 21.2C 14.7C 17.5C 1022.5 hPa 1020.3 hPa 0.0 mm 0.0 mm/hr 00:00 hrs 11.3 km/hr 5.2 km/hr 37.2 km
28/03/2010 25.4C 15.9C 19.1C 1028.7 hPa 1021.3 hPa 0.0 mm 0.0 mm/hr 00:00 hrs 9.7 km/hr 2.5 km/hr 13.2 km
29/03/2010 20.8C 14.2C 17.0C 1034.7 hPa 1028.6 hPa 0.0 mm 0.0 mm/hr 00:00 hrs 12.9 km/hr 4.7 km/hr 42.4 km
30/03/2010 22.1C 10.1C 15.2C 1034.8 hPa 1031.5 hPa 0.2 mm 0.0 mm/hr 00:00 hrs 11.3 km/hr 3.8 km/hr 24.1 km
Back to top 31/03/2010 22.1C 12.2C 16.2C 1033.6 hPa 1030.7 hPa 0.2 mm 0.0 mm/hr 00:00 hrs 11.3 km/hr 5.1 km/hr 22.4 km
2009 Temperature Pressure Rain Wind
Maximum Minimum Average Maximum Minimum Day Total Maximum Rain Rate High Gust Highest Av Run
C C C hPa hPa mm mm/hr time km/h km/h km
01/03/2009 21.6C 18.1C 19.9C 1011.0 hPa 1010.0 hPa 0.9 mm          
02/03/2009 19.9C 17.7C 18.8C 1016.0 hPa 1015.0 hPa 0.0 mm          
03/03/2009 23.9C 15.5C 19.7C 1022.0 hPa 1019.0 hPa 0.0 mm          
04/03/2009 21.0C 15.5C 18.3C 1026.0 hPa 1025.0 hPa 0.0 mm          
05/03/2009 19.2C 17.7C 18.5C 1020.0 hPa 1013.0 hPa 17.5 mm          
06/03/2009 21.5C 18.8C 20.2C 1013.0 hPa 1011.0 hPa 24.7 mm          
07/03/2009 22.2C 18.6C 20.4C 1010.0 hPa 1009.0 hPa 0.9 mm          
08/03/2009 21.8C 15.6C 18.7C 1010.0 hPa 1010.0 hPa 0.9 mm          
09/03/2009 20.0C 14.6C 17.3C 1014.0 hPa 1010.0 hPa 0.9 mm          
10/03/2009 20.1C 13.2C 16.7C 1015.0 hPa 1013.0 hPa 0.9 mm          
11/03/2009 19.3C 13.4C 16.4C 1010.0 hPa 1008.0 hPa 2.2 mm          
12/03/2009 19.0C 12.7C 15.9C 1012.0 hPa 1012.0 hPa 7.2 mm          
13/03/2009 18.6C 13.9C 16.3C 1016.0 hPa 1012.0 hPa 3.1 mm          
14/03/2009 18.0C 13.3C 15.7C 1022.0 hPa 1019.0 hPa 0.0 mm          
15/03/2009 22.0C 13.8C 17.9C 1024.0 hPa 1024.0 hPa 0.0 mm          
16/03/2009 21.6C 12.8C 17.2C 1024.0 hPa 1023.0 hPa 0.0 mm          
17/03/2009 22.0C 13.8C 17.9C 1021.0 hPa 1018.0 hPa 0.0 mm          
18/03/2009 23.0C 15.9C 19.5C 1018.0 hPa 1016.0 hPa 0.0 mm          
19/03/2009 21.4C 17.4C 19.4C 1015.0 hPa 1014.0 hPa 4.0 mm          
20/03/2009 22.0C 15.5C 18.8C 1015.0 hPa 1014.0 hPa 0.0 mm          
21/03/2009 23.5C 15.5C 19.5C 1015.0 hPa 1014.0 hPa 0.0 mm          
22/03/2009 23.5C 12.5C 18.0C 1014.0 hPa 1010.0 hPa 0.0 mm          
23/03/2009 22.0C 13.5C 17.8C 1016.0 hPa 1013.0 hPa 0.0 mm          
24/03/2009 21.0C 11.5C 16.3C 1022.0 hPa 1018.0 hPa 0.0 mm          
25/03/2009 21.1C 11.6C 16.4C 1025.0 hPa 1025.0 hPa 0.0 mm          
26/03/2009 20.8C 12.6C 16.7C 1025.0 hPa 1023.0 hPa 0.0 mm          
27/03/2009 20.0C 12.2C 16.1C 1021.0 hPa 1021.0 hPa 0.0 mm          
28/03/2009 20.0C 11.9C 16.0C 1022.0 hPa 1022.0 hPa 0.0 mm          
29/03/2009           0.0 mm          
30/03/2009           0.0 mm          
Back to top 31/03/2009           0.0 mm          
2008 Temperature Pressure Rain Wind
Maximum Minimum Average Maximum Minimum Day Total Maximum Rain Rate High Gust Highest Av Run
C C C hPa hPa mm mm/hr time km/h km/h km
01/03/2008 22.0C 19.5C 20.8C 1011.0 hPa 1011.0 hPa 20.7 mm          
02/03/2008 20.3C 18.1C 19.2C 1011.0 hPa 1010.0 hPa 11.7 mm          
03/03/2008 22.3C 18.0C 20.2C 1012.0 hPa 1012.0 hPa 0.0 mm          
04/03/2008 17.4C 14.7C 16.1C 1010.0 hPa 1008.0 hPa 5.4 mm          
05/03/2008 20.7C 14.4C 17.6C 1013.0 hPa 1007.0 hPa 0.0 mm          
06/03/2008 21.0C 13.2C 17.1C 1022.0 hPa 1019.0 hPa 0.0 mm          
07/03/2008 20.8C 14.5C 17.7C 1023.0 hPa 1022.0 hPa 1.3 mm          
08/03/2008 22.6C 14.0C 18.3C 1025.0 hPa 1025.0 hPa 0.0 mm          
09/03/2008 22.9C 15.0C 19.0C 1024.0 hPa 1024.0 hPa 0.0 mm          
10/03/2008 23.0C 14.8C 18.9C 1024.0 hPa 1024.0 hPa 0.0 mm          
11/03/2008 23.0C 16.1C 19.6C 1023.0 hPa 1020.0 hPa 0.0 mm          
12/03/2008 22.4C 15.2C 18.8C 1019.0 hPa 1017.0 hPa 0.0 mm          
13/03/2008 22.3C 15.0C 18.7C 1017.0 hPa 1017.0 hPa 0.0 mm          
14/03/2008 23.0C 16.5C 19.8C 1019.0 hPa 1018.0 hPa 5.8 mm          
15/03/2008 23.0C 14.6C 18.8C 1020.0 hPa 1018.0 hPa 0.0 mm          
16/03/2008 22.5C 16.0C 19.3C 1017.0 hPa 1017.0 hPa 0.0 mm          
17/03/2008 22.8C 13.9C 18.4C 1024.0 hPa 1023.0 hPa 0.0 mm          
18/03/2008 23.0C 15.0C 19.0C 1025.0 hPa 1024.0 hPa 0.0 mm          
19/03/2008 21.2C 16.1C 18.7C 1026.0 hPa 1024.0 hPa 0.0 mm          
20/03/2008 23.2C 15.5C 19.4C 1021.0 hPa 1019.0 hPa 0.0 mm          
21/03/2008 23.5C 14.6C 19.1C 1019.0 hPa 1017.0 hPa 0.0 mm          
22/03/2008 23.0C 14.8C 18.9C 1018.0 hPa 1018.0 hPa 0.0 mm          
23/03/2008 22.9C 14.5C 18.7C 1020.0 hPa 1020.0 hPa 0.0 mm          
24/03/2008 22.4C 16.7C 19.6C 1021.0 hPa 1019.0 hPa 0.0 mm          
25/03/2008 20.0C 15.8C 17.9C 1019.0 hPa 1018.0 hPa 0.4 mm          
26/03/2008 20.0C 15.8C 17.9C 1018.0 hPa 1018.0 hPa 0.9 mm          
27/03/2008 21.8C 15.3C 18.6C 1021.0 hPa 1020.0 hPa 0.4 mm          
28/03/2008 21.0C 16.5C 18.8C 1021.0 hPa 1020.0 hPa 0.0 mm          
29/03/2008 21.6C 15.6C 18.6C 1020.0 hPa 1018.0 hPa 0.0 mm          
30/03/2008 22.8C 16.8C 19.8C 1017.0 hPa 1016.0 hPa 0.0 mm          
Back to top 31/03/2008 20.4C 16.8C 18.6C 1016.0 hPa 1015.0 hPa 1.3 mm          
2007 Temperature Pressure Rain Wind
Maximum Minimum Average Maximum Minimum Day Total Maximum Rain Rate High Gust Highest Av Run
C C C hPa hPa mm mm/hr time km/h km/h km
01/03/2007                      
02/03/2007                      
03/03/2007                      
04/03/2007                      
05/03/2007                      
06/03/2007                      
07/03/2007                      
08/03/2007                      
09/03/2007                      
10/03/2007                      
11/03/2007                      
12/03/2007                      
13/03/2007                      
14/03/2007                      
15/03/2007                      
16/03/2007                      
17/03/2007                      
18/03/2007                      
19/03/2007                      
20/03/2007                      
21/03/2007                      
22/03/2007                      
23/03/2007                      
24/03/2007                      
25/03/2007                      
26/03/2007                      
27/03/2007                      
28/03/2007                      
29/03/2007                      
30/03/2007                      
Back to top 31/03/2007